Etusivu
METAR-TAF:

METAR-TAF

Lentoasemat :

Irkutskin lentoasema

Irkutsk, Venäjä

Leveyspiiri: 52-16N, Pituuspiiri: 104-19E, korkeus merenpinnasta: 513 m

Tämänhetkinen sää

Tämä raportti tehtiin 34 minuuttia sitten, kello 07.00 UTC
Tuuli 10 kn luoteesta, vaihdellen lännen ja pohjoisen välillä
Lämpötila 15°C
Kosteus 18%
Ilmanpaine 1022 hPa
Näkyvyys 10 km tai enemmän
ei pilviä alle 1500 m:ssä eikä cumulonimbus-pilviä

METAR: UIII 020700Z 31005MPS 270V350 CAVOK 15/M09 Q1022 R30/60D NOSIG RMK QFE721/0962

Aika: 15:34 (07:34 UTC)

Sääennuste

Tämä raportti tehtiin 2 tuntia ja 34 minuuttia sitten, kello 05.00 UTC
Ennuste voimassa 02. päivästä klo 06 UTC - 03. päivään klo 06 UTC
Tuuli 6 kn lännestä/luoteesta
Näkyvyys 10 km tai enemmän
ei pilviä alle 1500 m:ssä eikä cumulonimbus-pilviä

TAF: UIII 020500Z 0206/0306 30003MPS CAVOK

Säähavainnot ja -ennusteet yli 4000 lentoasemalta (METAR- ja TAF-raportit).

Käytössä olevat sääasemat on merkitty karttaan keltaisilla ja punaisilla pisteillä.

Aseta hiiri pisteen päälle nähdäksesi sääaseman nimen.

Klikkaa sitten nähdäksesi säähavainnot ja -ennusteet.

Kartan vaihtaminen: klikkaa mustalla rastilla varustettuja vihreitä pisteitä, niin voit zoomata sisään; viivalla varustettua vihreää pistettä, niin voit zoomata ulos tai vihreitä nuolia, niin pääset viereisille kartoille.


METAR-TAF: